Time;durP1;ratioP1;P1;durP2;ratioP2;P2;SDS_P1;SDS_P2;PMS_P1;PMS_P2;Temp;Humidity;BMP_temperature;BMP_pressure;BME280_temperature;BME280_humidity;BME280_pressure;Samples;Min_cycle;Max_cycle;Signal;HPM_P1;HPM_P2
2023/08/20 00:02:23;;;;;;;5.25;2.20;;;;;;;24.36;59.44;102016.78;5007338;28;20133;-67
2023/08/20 00:04:49;;;;;;;4.97;1.85;;;;;;;24.36;59.40;102009.63;5006957;28;20438;-65
2023/08/20 00:07:18;;;;;;;4.93;1.90;;;;;;;24.35;58.84;102012.44;5006535;28;20033;-68
2023/08/20 00:09:43;;;;;;;4.95;2.15;;;;;;;24.34;58.79;102005.41;5007072;28;20037;-67
2023/08/20 00:12:08;;;;;;;5.63;2.20;;;;;;;24.34;59.19;102003.59;5007059;28;20056;-69
2023/08/20 00:15:06;;;;;;;4.75;2.10;;;;;;;24.34;59.29;102002.75;5007033;28;20042;-66
2023/08/20 00:17:32;;;;;;;5.88;2.42;;;;;;;24.35;58.94;101997.28;4994805;28;20718;-66
2023/08/20 00:19:58;;;;;;;6.55;3.00;;;;;;;24.33;59.04;101996.59;5007181;28;20038;-65
2023/08/20 00:22:24;;;;;;;4.30;1.98;;;;;;;24.33;58.60;101996.59;5006810;28;20391;-66
2023/08/20 00:24:51;;;;;;;4.85;1.88;;;;;;;24.32;58.80;101997.56;5006993;28;20117;-65
2023/08/20 00:27:17;;;;;;;4.57;1.83;;;;;;;24.31;58.73;101997.69;5007182;28;20042;-66
2023/08/20 00:29:43;;;;;;;4.30;1.75;;;;;;;24.32;58.76;102004.72;5005747;28;20528;-66
2023/08/20 00:32:08;;;;;;;5.45;1.95;;;;;;;24.32;58.61;102004.72;5006886;28;20034;-67
2023/08/20 00:34:34;;;;;;;4.47;1.90;;;;;;;24.31;58.42;102011.88;5006919;28;20034;-67
2023/08/20 00:37:00;;;;;;;5.50;2.00;;;;;;;24.30;58.56;102012.00;5006848;28;20053;-66
2023/08/20 00:39:25;;;;;;;4.72;1.77;;;;;;;24.29;58.56;102015.63;5006750;28;20075;-66
2023/08/20 00:41:51;;;;;;;5.63;2.10;;;;;;;24.29;58.37;102021.78;5006789;28;20080;-66
2023/08/20 00:44:16;;;;;;;5.45;1.90;;;;;;;24.30;58.38;102030.66;5006474;28;20087;-66
2023/08/20 00:46:42;;;;;;;5.45;1.83;;;;;;;24.28;58.41;102038.78;5007019;28;20470;-66
2023/08/20 00:49:07;;;;;;;5.70;1.80;;;;;;;24.28;58.28;102044.09;5006459;28;20041;-67
2023/08/20 00:51:33;;;;;;;6.20;1.80;;;;;;;24.26;58.84;102038.09;5007113;28;20030;-67
2023/08/20 00:54:00;;;;;;;4.80;2.00;;;;;;;24.28;58.64;102041.44;5006945;28;20025;-67
2023/08/20 00:56:26;;;;;;;5.05;2.00;;;;;;;24.27;58.42;102035.28;5006476;28;20035;-68
2023/08/20 00:58:53;;;;;;;3.70;1.73;;;;;;;24.26;58.18;102046.91;5006459;28;20157;-67
2023/08/20 01:01:18;;;;;;;3.72;1.70;;;;;;;24.25;58.37;102050.53;5006970;28;20064;-67
2023/08/20 01:03:43;;;;;;;6.00;2.10;;;;;;;24.25;58.34;102061.19;5007552;28;20026;-67
2023/08/20 01:06:30;;;;;;;5.68;1.90;;;;;;;24.26;58.61;102075.38;5007416;28;20628;-66
2023/08/20 01:09:06;;;;;;;4.50;1.70;;;;;;;24.24;58.65;102074.66;5006772;28;20486;-66
2023/08/20 01:11:38;;;;;;;6.85;2.17;;;;;;;24.25;58.42;102073.69;5006674;28;20034;-66
2023/08/20 01:14:15;;;;;;;4.40;1.73;;;;;;;24.24;58.27;102082.63;5006423;28;20034;-67
2023/08/20 01:16:40;;;;;;;4.50;2.00;;;;;;;24.25;58.38;102087.00;5006484;28;20034;-66
2023/08/20 01:19:08;;;;;;;3.80;1.70;;;;;;;24.24;58.25;102083.50;5010068;28;20041;-66
2023/08/20 01:21:41;;;;;;;4.72;1.90;;;;;;;24.23;58.30;102073.81;5010187;28;20278;-66
2023/08/20 01:24:41;;;;;;;5.40;1.80;;;;;;;24.23;58.34;102071.16;5011706;28;20128;-67
2023/08/20 01:27:52;;;;;;;4.47;1.70;;;;;;;24.23;58.50;102067.66;5011778;28;20137;-68
2023/08/20 01:30:20;;;;;;;5.22;1.88;;;;;;;24.22;58.13;102061.47;5009656;28;20111;-67
2023/08/20 01:32:47;;;;;;;4.45;1.80;;;;;;;24.22;58.22;102066.78;5010309;28;20100;-67
2023/08/20 01:35:16;;;;;;;5.10;1.85;;;;;;;24.21;58.02;102070.44;5010285;28;20034;-69
2023/08/20 01:37:42;;;;;;;3.17;1.35;;;;;;;24.21;58.29;102065.13;5010006;28;20030;-67
2023/08/20 01:40:10;;;;;;;3.65;1.42;;;;;;;24.21;58.22;102064.25;5008887;28;20033;-67
2023/08/20 01:42:38;;;;;;;5.28;1.60;;;;;;;24.20;58.07;102071.41;5009686;28;20038;-67
2023/08/20 01:45:05;;;;;;;4.60;1.73;;;;;;;24.19;58.43;102072.38;5010133;28;20027;-68
2023/08/20 01:47:30;;;;;;;4.53;1.58;;;;;;;24.19;58.05;102069.72;5009888;28;20037;-67
2023/08/20 01:49:56;;;;;;;4.70;1.80;;;;;;;24.20;57.92;102065.25;5009958;28;20046;-67
2023/08/20 01:52:21;;;;;;;4.60;1.73;;;;;;;24.20;58.30;102068.75;5010037;28;20121;-66
2023/08/20 01:54:48;;;;;;;5.70;1.63;;;;;;;24.19;58.48;102075.03;5009443;28;20045;-67
2023/08/20 01:57:13;;;;;;;4.20;1.60;;;;;;;24.18;58.42;102072.53;5040807;28;20037;-66
2023/08/20 01:59:39;;;;;;;4.60;1.73;;;;;;;24.19;58.00;102079.53;5009362;28;20026;-67
2023/08/20 02:02:05;;;;;;;4.80;1.90;;;;;;;24.19;58.20;102090.19;5009374;28;20056;-66
2023/08/20 02:04:31;;;;;;;4.07;1.40;;;;;;;24.18;58.45;102088.50;5009214;28;20037;-67
2023/08/20 02:06:56;;;;;;;4.60;1.63;;;;;;;24.18;58.54;102083.16;5009034;28;20437;-67
2023/08/20 02:09:22;;;;;;;4.43;1.60;;;;;;;24.18;57.98;102089.38;5009042;28;20041;-66
2023/08/20 02:11:47;;;;;;;6.85;1.85;;;;;;;24.18;58.50;102094.69;5008650;28;20374;-68
2023/08/20 02:14:12;;;;;;;5.63;2.00;;;;;;;24.18;58.25;102091.16;5008824;28;20076;-67
2023/08/20 02:16:38;;;;;;;3.70;1.60;;;;;;;24.18;58.18;102100.00;5008745;28;20459;-68
2023/08/20 02:19:05;;;;;;;4.47;1.55;;;;;;;24.18;58.29;102100.00;5008608;28;20040;-67
2023/08/20 02:21:30;;;;;;;5.30;1.65;;;;;;;24.17;58.29;102098.31;5009600;28;20032;-67
2023/08/20 02:23:56;;;;;;;4.45;1.60;;;;;;;24.16;58.27;102099.28;5008418;28;20120;-66
2023/08/20 02:26:21;;;;;;;5.30;1.80;;;;;;;24.18;57.98;102101.81;5008291;28;21773;-67
2023/08/20 02:28:47;;;;;;;4.00;1.70;;;;;;;24.16;57.95;102101.13;5008499;28;20028;-66
2023/08/20 02:31:12;;;;;;;4.15;1.50;;;;;;;24.16;58.11;102096.63;5008423;28;20044;-66
2023/08/20 02:33:37;;;;;;;3.87;1.57;;;;;;;24.16;58.28;102093.97;5009080;28;20029;-66
2023/08/20 02:36:03;;;;;;;4.18;1.63;;;;;;;24.17;57.95;102094.81;5008564;28;20275;-66
2023/08/20 02:38:29;;;;;;;5.15;1.70;;;;;;;24.16;58.45;102083.31;5008473;28;20453;-68
2023/08/20 02:40:55;;;;;;;5.53;1.70;;;;;;;24.15;58.14;102086.97;5008234;28;20549;-68
2023/08/20 02:43:20;;;;;;;4.07;1.58;;;;;;;24.16;58.41;102082.47;5008464;28;20034;-67
2023/08/20 02:45:45;;;;;;;4.82;1.40;;;;;;;24.15;57.89;102089.63;5009007;28;20040;-68
2023/08/20 02:48:11;;;;;;;4.82;1.80;;;;;;;24.16;58.20;102088.63;5008391;28;20099;-67
2023/08/20 02:50:36;;;;;;;6.68;2.00;;;;;;;24.15;58.01;102092.28;5008321;28;20671;-67
2023/08/20 02:53:03;;;;;;;4.15;1.50;;;;;;;24.16;57.99;102085.13;5008198;28;20029;-67
2023/08/20 02:55:28;;;;;;;4.72;1.60;;;;;;;24.14;57.90;102087.94;5008804;28;20034;-67
2023/08/20 02:57:54;;;;;;;4.43;1.60;;;;;;;24.14;57.77;102079.94;5008214;28;20029;-67
2023/08/20 03:00:19;;;;;;;5.20;1.75;;;;;;;24.14;58.00;102077.28;5009732;28;20034;-65
2023/08/20 03:02:44;;;;;;;3.65;1.38;;;;;;;24.13;57.70;102078.25;5008694;28;20038;-67
2023/08/20 03:05:10;;;;;;;3.65;1.50;;;;;;;24.14;58.12;102082.59;5008883;28;20437;-66
2023/08/20 03:07:35;;;;;;;4.35;1.88;;;;;;;24.14;58.08;102079.94;5008550;28;20052;-67
2023/08/20 03:10:00;;;;;;;4.57;1.63;;;;;;;24.13;57.56;102075.59;5008653;28;20034;-64
2023/08/20 03:12:26;;;;;;;4.50;1.70;;;;;;;24.14;57.68;102079.94;5008212;28;20528;-66
2023/08/20 03:14:51;;;;;;;5.55;1.70;;;;;;;24.12;57.95;102070.41;5010688;28;20509;-66
2023/08/20 03:17:17;;;;;;;4.90;1.90;;;;;;;24.12;57.63;102073.91;5015985;28;20499;-65
2023/08/20 03:19:58;;;;;;;3.88;1.63;;;;;;;24.09;57.65;102068.84;5011413;28;20034;-66
2023/08/20 03:22:24;;;;;;;3.58;1.58;;;;;;;24.12;57.84;102073.09;5009100;28;20034;-66
2023/08/20 03:24:50;;;;;;;4.70;1.45;;;;;;;24.12;57.62;102075.75;5008674;28;20467;-65
2023/08/20 03:27:16;;;;;;;3.40;1.50;;;;;;;24.11;57.77;102074.88;5008591;28;20125;-65
2023/08/20 03:29:42;;;;;;;4.30;1.75;;;;;;;24.11;57.36;102076.72;5011034;28;20041;-66
2023/08/20 03:32:07;;;;;;;4.88;1.70;;;;;;;24.11;57.91;102082.03;5008825;28;20386;-67
2023/08/20 03:34:32;;;;;;;4.40;1.80;;;;;;;24.11;57.46;102076.72;5008281;28;20512;-66
2023/08/20 03:36:58;;;;;;;3.20;1.42;;;;;;;24.09;57.30;102069.69;5008553;28;20042;-67
2023/08/20 03:39:23;;;;;;;4.95;1.75;;;;;;;24.09;57.78;102071.53;5007999;28;20065;-66
2023/08/20 03:41:50;;;;;;;6.18;1.95;;;;;;;24.09;57.38;102066.19;5007926;28;20438;-66
2023/08/20 03:44:15;;;;;;;4.20;1.48;;;;;;;24.07;57.76;102074.31;5006921;28;20036;-66
2023/08/20 03:46:40;;;;;;;4.53;1.90;;;;;;;24.08;57.71;102075.16;5007754;28;20033;-66
2023/08/20 03:49:06;;;;;;;4.53;1.70;;;;;;;24.08;57.68;102073.34;5008090;28;20045;-66
2023/08/20 03:51:31;;;;;;;4.95;1.60;;;;;;;24.07;57.10;102079.66;5008274;28;20485;-65
2023/08/20 03:53:56;;;;;;;5.40;1.85;;;;;;;24.08;57.68;102084.00;5010088;28;20053;-65
2023/08/20 03:56:22;;;;;;;4.15;1.55;;;;;;;24.08;57.36;102088.47;5007344;28;20056;-65
2023/08/20 03:58:47;;;;;;;3.47;1.40;;;;;;;24.07;57.32;102084.13;5008971;28;20386;-67
2023/08/20 04:01:12;;;;;;;6.63;1.90;;;;;;;24.02;57.35;102073.88;5007683;28;20038;-67
2023/08/20 04:03:37;;;;;;;4.30;1.77;;;;;;;24.07;57.22;102089.47;5007019;28;20267;-67
2023/08/20 04:06:03;;;;;;;3.23;1.47;;;;;;;24.05;57.55;102094.91;5006751;28;20038;-67
2023/08/20 04:08:28;;;;;;;4.57;1.70;;;;;;;24.04;57.50;102095.88;5006701;28;20790;-66
2023/08/20 04:10:54;;;;;;;3.80;1.50;;;;;;;24.04;57.36;102095.88;5006897;28;20466;-66
2023/08/20 04:13:19;;;;;;;5.78;1.70;;;;;;;24.04;56.91;102100.38;5007254;28;20034;-67
2023/08/20 04:15:45;;;;;;;5.40;1.67;;;;;;;24.04;57.46;102101.22;5007044;28;20076;-67
2023/08/20 04:18:10;;;;;;;4.40;1.90;;;;;;;24.04;57.43;102098.56;5007607;28;20033;-66
2023/08/20 04:20:36;;;;;;;5.50;1.70;;;;;;;24.04;57.31;102095.06;5007011;28;20534;-66
2023/08/20 04:23:01;;;;;;;4.88;1.80;;;;;;;24.04;57.28;102097.72;5007243;28;20053;-66
2023/08/20 04:25:26;;;;;;;3.83;1.65;;;;;;;24.04;57.09;102103.03;5006733;28;20080;-67
2023/08/20 04:27:52;;;;;;;4.15;1.70;;;;;;;24.03;56.85;102106.69;5007814;28;20055;-67
2023/08/20 04:30:17;;;;;;;3.42;1.40;;;;;;;24.03;57.19;102104.84;5007092;28;20044;-68
2023/08/20 04:32:43;;;;;;;3.78;1.65;;;;;;;24.03;57.13;102109.34;5006781;28;20029;-66
2023/08/20 04:35:08;;;;;;;3.47;1.50;;;;;;;24.02;56.89;102111.16;5006718;28;20080;-67
2023/08/20 04:37:34;;;;;;;5.05;1.77;;;;;;;24.03;56.86;102112.00;5006778;28;20030;-67
2023/08/20 04:39:59;;;;;;;4.05;1.67;;;;;;;24.01;56.85;102114.78;5007073;28;20354;-67
2023/08/20 04:42:24;;;;;;;4.32;1.50;;;;;;;24.01;56.97;102117.44;5006421;28;20034;-68
2023/08/20 04:44:49;;;;;;;3.95;1.50;;;;;;;24.02;57.07;102113.81;5006472;28;20121;-66
2023/08/20 04:47:15;;;;;;;5.38;1.77;;;;;;;24.01;57.12;102104.13;5005481;28;20038;-66
2023/08/20 04:49:41;;;;;;;4.97;1.63;;;;;;;24.01;56.68;102105.97;5006551;28;20104;-68
2023/08/20 04:52:06;;;;;;;3.92;1.60;;;;;;;24.01;56.85;102108.63;5005521;28;20367;-69
2023/08/20 04:54:31;;;;;;;4.13;1.60;;;;;;;24.00;56.85;102118.41;5007046;28;20659;-67
2023/08/20 04:56:56;;;;;;;3.70;1.70;;;;;;;24.01;56.78;102116.63;5005241;28;20395;-68
2023/08/20 04:59:22;;;;;;;3.42;1.60;;;;;;;23.99;56.61;102114.09;5006436;28;20034;-69
2023/08/20 05:01:47;;;;;;;4.28;1.70;;;;;;;24.00;56.75;102114.94;5004987;28;20033;-67
2023/08/20 05:04:13;;;;;;;3.75;1.77;;;;;;;24.00;56.76;102122.91;5006440;28;20431;-68
2023/08/20 05:06:38;;;;;;;4.60;1.90;;;;;;;24.00;56.47;102131.72;5006085;28;20026;-67
2023/08/20 05:09:04;;;;;;;4.20;1.58;;;;;;;23.98;57.01;102123.03;5006784;28;20469;-66
2023/08/20 05:11:32;;;;;;;4.15;1.70;;;;;;;23.97;56.90;102118.69;5006167;28;20034;-67
2023/08/20 05:13:58;;;;;;;4.00;1.75;;;;;;;23.97;56.82;102121.34;5006286;28;20030;-66
2023/08/20 05:16:23;;;;;;;4.65;1.73;;;;;;;23.98;56.94;102125.72;5006405;28;20030;-67
2023/08/20 05:18:49;;;;;;;4.85;1.70;;;;;;;23.98;56.82;102130.19;5006504;28;20033;-67
2023/08/20 05:21:14;;;;;;;4.30;1.55;;;;;;;23.97;56.56;102128.50;5006617;28;20103;-67
2023/08/20 05:23:40;;;;;;;6.40;2.15;;;;;;;23.98;56.70;102132.88;5006580;28;20105;-66
2023/08/20 05:26:07;;;;;;;3.60;1.75;;;;;;;23.96;56.61;102130.34;5006735;28;20479;-67
2023/08/20 05:28:32;;;;;;;4.82;1.63;;;;;;;23.97;56.78;102142.66;5006148;28;20038;-66
2023/08/20 05:30:58;;;;;;;3.90;1.52;;;;;;;23.97;56.80;102139.16;5006202;28;20030;-68
2023/08/20 05:33:24;;;;;;;4.18;1.60;;;;;;;23.97;56.76;102141.81;5006717;28;20109;-68
2023/08/20 05:35:49;;;;;;;4.00;1.70;;;;;;;23.96;56.89;102142.78;5006447;28;20042;-67
2023/08/20 05:38:15;;;;;;;3.45;1.60;;;;;;;23.96;56.58;102140.13;5006330;28;20117;-68
2023/08/20 05:40:41;;;;;;;4.65;1.70;;;;;;;23.96;56.89;102140.13;5005976;28;20033;-67
2023/08/20 05:43:06;;;;;;;4.50;2.05;;;;;;;23.97;56.90;102136.50;5006185;28;20048;-67
2023/08/20 05:45:31;;;;;;;5.03;1.98;;;;;;;23.96;56.92;102145.44;5006062;28;20026;-67
2023/08/20 05:47:57;;;;;;;4.18;1.80;;;;;;;23.96;57.08;102145.44;5006138;28;20534;-66
2023/08/20 05:50:22;;;;;;;3.40;1.65;;;;;;;23.94;56.38;102145.59;5005998;28;20045;-65
2023/08/20 05:52:48;;;;;;;3.65;1.63;;;;;;;23.96;57.00;102148.09;5005808;28;20041;-66
2023/08/20 05:55:14;;;;;;;3.30;1.60;;;;;;;23.95;56.53;102146.44;5007015;28;20360;-66
2023/08/20 05:57:39;;;;;;;3.97;1.88;;;;;;;23.95;56.79;102139.28;5005989;28;20422;-66
2023/08/20 06:00:05;;;;;;;4.07;1.60;;;;;;;23.96;57.04;102142.78;5006071;28;20052;-67
2023/08/20 06:02:30;;;;;;;4.00;1.52;;;;;;;23.96;56.89;102137.44;5006153;28;20034;-67
2023/08/20 06:04:55;;;;;;;3.55;1.60;;;;;;;23.94;56.72;102136.75;5007284;28;20524;-66
2023/08/20 06:07:21;;;;;;;4.78;1.90;;;;;;;23.93;56.96;102135.09;5009149;28;20045;-67
2023/08/20 06:09:46;;;;;;;4.95;1.60;;;;;;;23.96;57.01;102142.78;5009454;28;20041;-67
2023/08/20 06:12:12;;;;;;;4.55;1.88;;;;;;;23.96;56.67;102134.78;5009243;28;20025;-67
2023/08/20 06:14:37;;;;;;;4.28;1.83;;;;;;;23.95;56.86;102133.13;5009216;28;20026;-66
2023/08/20 06:17:03;;;;;;;4.40;1.67;;;;;;;23.94;57.13;102134.09;5008785;28;20061;-68
2023/08/20 06:19:29;;;;;;;3.92;1.55;;;;;;;23.94;56.77;102137.63;5008955;28;20493;-67
2023/08/20 06:21:54;;;;;;;5.57;1.70;;;;;;;23.95;56.82;102139.28;5009158;28;20172;-68
2023/08/20 06:24:20;;;;;;;5.38;1.80;;;;;;;23.93;57.19;102138.56;5009204;28;20038;-67
2023/08/20 06:26:45;;;;;;;4.78;1.85;;;;;;;23.93;56.98;102133.25;5008721;28;20057;-66
2023/08/20 06:29:10;;;;;;;5.13;1.50;;;;;;;23.93;57.00;102141.25;5009319;28;20044;-66
2023/08/20 06:31:36;;;;;;;4.45;1.60;;;;;;;23.94;56.86;102137.63;5009981;28;20044;-68
2023/08/20 06:34:02;;;;;;;4.03;1.70;;;;;;;23.93;56.93;102138.56;5009219;28;20034;-67
2023/08/20 06:36:27;;;;;;;4.53;1.60;;;;;;;23.96;57.03;102146.31;5008616;28;20044;-66
2023/08/20 06:38:52;;;;;;;3.83;1.52;;;;;;;23.94;57.03;102142.06;5008990;28;20034;-66
2023/08/20 06:41:18;;;;;;;3.60;1.57;;;;;;;23.95;57.50;102147.28;5007944;28;20036;-65
2023/08/20 06:43:43;;;;;;;5.40;1.88;;;;;;;23.97;57.43;102149.81;5008539;28;20276;-66
2023/08/20 06:46:09;;;;;;;3.92;1.52;;;;;;;23.97;57.02;102149.81;5008685;28;20037;-65
2023/08/20 06:48:34;;;;;;;4.68;1.50;;;;;;;23.96;56.96;102140.97;5009124;28;20103;-66
2023/08/20 06:51:10;;;;;;;3.72;1.58;;;;;;;23.96;57.30;102156.09;5008572;28;20046;-67
2023/08/20 06:53:35;;;;;;;3.65;1.58;;;;;;;23.97;57.15;102155.13;5008701;28;20117;-66
2023/08/20 06:56:01;;;;;;;4.47;1.60;;;;;;;23.94;57.21;102144.75;5008551;28;20133;-67
2023/08/20 06:58:26;;;;;;;4.82;1.50;;;;;;;23.97;57.20;102150.63;5008817;28;20042;-67
2023/08/20 07:00:51;;;;;;;5.23;1.70;;;;;;;23.98;57.07;102149.66;5008394;28;20029;-66
2023/08/20 07:03:17;;;;;;;7.32;2.00;;;;;;;23.98;57.19;102147.00;5006904;28;20309;-67
2023/08/20 07:05:42;;;;;;;5.78;2.03;;;;;;;23.99;57.63;102155.81;5008774;28;21064;-65
2023/08/20 07:08:08;;;;;;;4.32;1.77;;;;;;;23.99;57.84;102153.16;5008779;28;20077;-66
2023/08/20 07:10:33;;;;;;;6.10;2.33;;;;;;;24.00;57.90;102161.03;5008193;28;20030;-65
2023/08/20 07:12:58;;;;;;;5.97;1.80;;;;;;;24.01;57.75;102161.88;5007901;28;20050;-67
2023/08/20 07:15:24;;;;;;;5.18;2.15;;;;;;;24.03;57.61;102162.59;5009358;28;20040;-65
2023/08/20 07:17:49;;;;;;;5.57;2.08;;;;;;;24.01;57.93;102164.56;5008022;28;20044;-67
2023/08/20 07:20:14;;;;;;;7.35;2.47;;;;;;;24.01;57.88;102167.22;5008101;28;20069;-66
2023/08/20 07:22:40;;;;;;;5.07;2.03;;;;;;;24.02;58.21;102160.91;5007960;28;20029;-67
2023/08/20 07:25:05;;;;;;;6.07;2.08;;;;;;;24.02;57.78;102161.75;5008217;28;20129;-66
2023/08/20 07:27:30;;;;;;;5.22;2.03;;;;;;;24.05;58.41;102160.63;5007699;28;20064;-66
2023/08/20 07:29:56;;;;;;;6.28;2.30;;;;;;;24.08;58.29;102171.88;5006183;28;20137;-65
2023/08/20 07:32:22;;;;;;;6.78;2.50;;;;;;;24.18;58.13;102166.59;4988584;28;20089;-66
2023/08/20 07:34:48;;;;;;;6.60;2.80;;;;;;;24.26;58.00;102166.78;4128998;28;10000481;-66
2023/08/20 07:37:13;;;;;;;7.43;3.20;;;;;;;24.29;57.80;102155.00;4974270;28;20046;-65
2023/08/20 07:39:40;;;;;;;5.68;2.78;;;;;;;24.33;57.49;102166.25;5004404;28;20501;-65
2023/08/20 07:42:06;;;;;;;7.50;2.45;;;;;;;24.35;57.82;102165.09;5005912;28;20510;-66
2023/08/20 07:44:31;;;;;;;6.22;2.70;;;;;;;24.35;57.53;102164.28;5005341;28;20030;-66
2023/08/20 07:46:56;;;;;;;5.75;2.20;;;;;;;24.34;57.85;102165.25;5005850;28;20034;-65
2023/08/20 07:49:22;;;;;;;7.68;2.50;;;;;;;24.36;57.52;102172.13;5005349;28;20341;-63
2023/08/20 07:51:48;;;;;;;5.72;2.25;;;;;;;24.40;57.29;102175.38;5003729;28;20065;-66
2023/08/20 07:54:13;;;;;;;7.25;2.30;;;;;;;24.40;57.59;102170.91;5004646;28;20041;-65
2023/08/20 07:56:39;;;;;;;6.95;3.05;;;;;;;24.42;57.46;102182.25;5005433;28;20033;-65
2023/08/20 07:59:04;;;;;;;6.28;2.63;;;;;;;24.45;57.29;102179.31;5004903;28;20022;-63
2023/08/20 08:01:29;;;;;;;5.22;2.65;;;;;;;24.44;57.51;102185.63;5005529;28;20036;-66
2023/08/20 08:03:55;;;;;;;5.23;2.53;;;;;;;24.44;57.65;102182.97;5004699;28;20527;-64
2023/08/20 08:06:22;;;;;;;6.53;2.35;;;;;;;24.45;57.57;102182.00;5004874;28;20778;-66
2023/08/20 08:08:52;;;;;;;8.02;2.67;;;;;;;24.45;57.61;102179.31;5004499;28;20030;-67
2023/08/20 08:11:17;;;;;;;5.35;2.72;;;;;;;24.47;57.38;102173.88;5007051;28;20055;-68
2023/08/20 08:13:43;;;;;;;6.65;2.13;;;;;;;24.49;57.17;102193.22;5005829;28;20034;-66
2023/08/20 08:16:08;;;;;;;5.75;2.63;;;;;;;24.52;57.13;102187.63;5005138;28;20061;-66
2023/08/20 08:18:34;;;;;;;6.35;2.20;;;;;;;24.54;56.92;102193.66;5005735;28;20112;-66
2023/08/20 08:21:00;;;;;;;14.52;2.35;;;;;;;24.57;57.18;102196.06;5004523;28;20096;-65
2023/08/20 08:23:25;;;;;;;5.90;2.42;;;;;;;24.55;57.15;102195.34;5005913;28;21250;-66
2023/08/20 08:25:53;;;;;;;6.22;2.40;;;;;;;24.57;57.58;102193.41;5005272;28;20434;-63
2023/08/20 08:28:20;;;;;;;8.18;2.42;;;;;;;24.62;57.49;102196.53;5005535;28;20054;-65
2023/08/20 08:30:45;;;;;;;4.65;2.05;;;;;;;24.62;57.29;102195.69;5005802;28;20597;-66
2023/08/20 08:33:10;;;;;;;4.77;2.37;;;;;;;24.64;57.04;102191.03;5005566;28;20084;-65
2023/08/20 08:35:39;;;;;;;4.57;2.20;;;;;;;24.62;56.89;102190.34;5004696;28;20299;-67
2023/08/20 08:38:04;;;;;;;7.60;2.40;;;;;;;24.63;57.11;102198.19;5006302;28;20513;-65
2023/08/20 08:40:30;;;;;;;6.93;2.65;;;;;;;24.61;56.94;102192.19;5005289;28;20026;-63
2023/08/20 08:42:56;;;;;;;5.03;2.15;;;;;;;24.62;56.87;102201.88;4982734;28;20057;-63
2023/08/20 08:45:26;;;;;;;4.12;1.80;;;;;;;24.67;56.84;102195.28;4212048;28;10001031;-65
2023/08/20 08:47:54;;;;;;;6.72;1.98;;;;;;;24.64;56.91;102196.38;5022182;28;20042;-67
2023/08/20 08:50:19;;;;;;;5.07;1.90;;;;;;;24.64;56.93;102199.03;4145152;28;10000981;-64
2023/08/20 08:52:46;;;;;;;6.57;2.20;;;;;;;24.65;56.66;102199.91;4145936;28;10000762;-66
2023/08/20 08:55:16;;;;;;;4.15;1.80;;;;;;;24.64;56.86;102199.03;5009530;28;20550;-65
2023/08/20 08:57:41;;;;;;;4.32;1.77;;;;;;;24.67;57.06;102201.44;5005489;28;20041;-67
2023/08/20 09:00:07;;;;;;;6.15;2.08;;;;;;;24.67;56.61;102200.59;5005847;28;20036;-66
2023/08/20 09:02:32;;;;;;;4.95;2.47;;;;;;;24.66;56.72;102199.78;5005790;28;20034;-66
2023/08/20 09:04:58;;;;;;;4.57;1.80;;;;;;;24.68;56.50;102203.13;4987502;28;20540;-66
2023/08/20 09:07:23;;;;;;;5.50;2.20;;;;;;;24.69;56.95;102209.28;5005306;28;20495;-66
2023/08/20 09:09:49;;;;;;;4.22;1.80;;;;;;;24.70;56.56;102208.31;4979159;28;20239;-65
2023/08/20 09:12:16;;;;;;;4.65;1.73;;;;;;;24.69;56.53;102202.16;5004714;28;20485;-66
2023/08/20 09:14:52;;;;;;;5.25;2.08;;;;;;;24.69;56.95;102210.16;5004955;28;20053;-66
2023/08/20 09:17:19;;;;;;;4.60;1.77;;;;;;;24.70;56.77;102203.84;5004193;28;20056;-63
2023/08/20 09:19:45;;;;;;;4.15;2.08;;;;;;;24.70;56.54;102211.81;5003764;28;20053;-68
2023/08/20 09:22:14;;;;;;;5.75;1.98;;;;;;;24.71;56.74;102207.38;5004658;28;20096;-65
2023/08/20 09:24:44;;;;;;;6.93;1.95;;;;;;;24.72;57.19;102206.38;5004528;28;20065;-64
2023/08/20 09:27:10;;;;;;;6.68;1.90;;;;;;;24.72;56.83;102203.69;5004808;28;20553;-65
2023/08/20 09:29:48;;;;;;;4.07;1.80;;;;;;;24.69;57.27;102210.16;5005580;28;20050;-65
2023/08/20 09:32:16;;;;;;;5.72;1.67;;;;;;;24.73;56.86;102210.72;5005101;28;20369;-64
2023/08/20 09:34:41;;;;;;;4.85;1.70;;;;;;;24.74;56.74;102207.09;5004303;28;20033;-66
2023/08/20 09:37:12;;;;;;;3.88;1.63;;;;;;;24.72;57.01;102206.38;5005598;28;20034;-65
2023/08/20 09:39:37;;;;;;;4.57;1.60;;;;;;;24.74;56.81;102205.25;5007284;28;20053;-64
2023/08/20 09:42:04;;;;;;;3.65;1.65;;;;;;;24.76;57.14;102213.13;5006941;28;20042;-64
2023/08/20 09:44:36;;;;;;;5.82;2.38;;;;;;;24.72;56.71;102209.03;5008215;28;20037;-66
2023/08/20 09:47:12;;;;;;;2.78;1.40;;;;;;;24.67;56.74;102211.25;5009110;28;20041;-65
2023/08/20 09:49:46;;;;;;;4.10;1.50;;;;;;;24.62;57.43;102207.19;5010070;28;20072;-66
2023/08/20 09:52:16;;;;;;;4.60;1.90;;;;;;;24.61;57.07;102208.16;5009605;28;20040;-65
2023/08/20 09:54:47;;;;;;;4.47;1.40;;;;;;;24.61;56.69;102213.50;5009142;28;20049;-66
2023/08/20 09:57:21;;;;;;;4.93;1.50;;;;;;;24.56;56.80;102210.41;5009537;28;20461;-65
2023/08/20 09:59:48;;;;;;;17.90;1.83;;;;;;;24.57;56.93;102213.91;5009804;28;20039;-66
2023/08/20 10:02:14;;;;;;;5.13;2.00;;;;;;;24.56;56.52;102215.72;5009808;28;20037;-64
2023/08/20 10:04:40;;;;;;;4.68;1.50;;;;;;;24.56;56.20;102214.84;5009742;28;20026;-65
2023/08/20 10:07:06;;;;;;;5.38;1.67;;;;;;;24.53;55.53;102204.44;5009203;28;20033;-65
2023/08/20 10:09:32;;;;;;;3.30;1.30;;;;;;;24.52;55.35;102208.94;5009125;28;20037;-66
2023/08/20 10:11:57;;;;;;;4.15;1.33;;;;;;;24.53;55.76;102201.78;5009433;28;20037;-64
2023/08/20 10:14:22;;;;;;;4.25;1.30;;;;;;;24.57;55.86;102213.91;5010540;28;20034;-63
2023/08/20 10:16:48;;;;;;;3.42;1.42;;;;;;;24.55;55.97;102202.50;5009769;28;20037;-62
2023/08/20 10:19:16;;;;;;;3.60;1.38;;;;;;;24.55;56.58;102206.00;5009991;28;20033;-67
2023/08/20 10:21:45;;;;;;;3.08;1.10;;;;;;;24.52;56.17;102216.94;5010085;28;20025;-64
2023/08/20 10:24:16;;;;;;;4.32;1.50;;;;;;;24.49;56.72;102208.38;5008323;28;20387;-64
2023/08/20 10:26:42;;;;;;;4.38;1.13;;;;;;;24.47;56.38;102208.50;5008648;28;20161;-63
2023/08/20 10:29:37;;;;;;;3.40;1.48;;;;;;;24.46;56.36;102209.47;5008869;28;20141;-66
2023/08/20 10:32:10;;;;;;;6.72;1.20;;;;;;;24.45;56.52;102208.63;5009380;28;20033;-64
2023/08/20 10:34:40;;;;;;;4.13;1.30;;;;;;;24.47;56.69;102208.50;5008757;28;20108;-64
2023/08/20 10:37:10;;;;;;;3.78;1.40;;;;;;;24.44;56.97;102206.94;5009743;28;20065;-66
2023/08/20 10:39:35;;;;;;;3.72;1.70;;;;;;;24.43;56.95;102215.06;5008757;28;20043;-66
2023/08/20 10:42:19;;;;;;;3.88;1.27;;;;;;;24.41;57.04;102207.19;5008858;28;20119;-63
2023/08/20 10:45:09;;;;;;;4.75;1.40;;;;;;;24.42;57.10;102208.91;5008683;28;20050;-64
2023/08/20 10:47:42;;;;;;;5.45;1.67;;;;;;;24.42;57.23;102214.22;5007611;28;20049;-65
2023/08/20 10:50:10;;;;;;;6.30;1.85;;;;;;;24.43;57.63;102213.25;5006377;28;20037;-64
2023/08/20 10:52:40;;;;;;;8.38;2.53;;;;;;;24.44;57.25;102209.59;5007593;28;20047;-64
2023/08/20 10:55:07;;;;;;;7.15;2.08;;;;;;;24.48;57.51;102196.84;5006154;28;20642;-65
2023/08/20 10:57:34;;;;;;;6.53;2.05;;;;;;;24.45;57.24;102200.66;5008200;28;20026;-66
2023/08/20 11:00:06;;;;;;;5.05;1.80;;;;;;;24.47;56.98;102212.97;5008841;28;20041;-63
2023/08/20 11:02:32;;;;;;;4.93;1.70;;;;;;;24.47;56.16;102211.16;5007479;28;20022;-63
2023/08/20 11:04:58;;;;;;;8.90;1.70;;;;;;;24.45;56.49;102208.63;5008552;28;20393;-65
2023/08/20 11:07:25;;;;;;;5.85;1.63;;;;;;;24.44;56.13;102206.94;5008754;28;20033;-63
2023/08/20 11:09:50;;;;;;;7.10;2.03;;;;;;;24.48;56.60;102204.00;5007956;28;20041;-63
2023/08/20 11:12:16;;;;;;;4.95;1.67;;;;;;;24.54;56.95;102204.31;5008709;28;20520;-64
2023/08/20 11:14:41;;;;;;;4.88;1.52;;;;;;;24.58;56.86;102199.59;5008532;28;20474;-64
2023/08/20 11:17:07;;;;;;;5.38;1.85;;;;;;;24.62;57.30;102201.00;5008108;28;20077;-61
2023/08/20 11:19:33;;;;;;;7.63;2.10;;;;;;;24.62;57.39;102203.66;5008042;28;20034;-63
2023/08/20 11:21:59;;;;;;;6.55;2.38;;;;;;;24.59;57.28;102201.28;5007746;28;20033;-62
2023/08/20 11:24:28;;;;;;;4.68;1.48;;;;;;;24.65;56.74;102207.91;5004965;28;20056;-62